createdAt,value
2022-09-02T00:00:15.965Z,22.54
2022-09-02T00:01:15.966Z,22.54
2022-09-02T00:02:16.110Z,22.55
2022-09-02T00:03:16.162Z,22.54
2022-09-02T00:04:15.924Z,22.54
2022-09-02T00:05:15.932Z,22.54
2022-09-02T00:06:15.918Z,22.54
2022-09-02T00:07:15.939Z,22.54
2022-09-02T00:08:15.899Z,22.54
2022-09-02T00:09:16.034Z,22.55
2022-09-02T00:10:15.889Z,22.54
2022-09-02T00:11:15.968Z,22.55
2022-09-02T00:12:15.842Z,22.55
2022-09-02T00:13:15.901Z,22.54
2022-09-02T00:14:15.804Z,22.54
2022-09-02T00:15:15.817Z,22.54
2022-09-02T00:16:15.844Z,22.54
2022-09-02T00:17:15.783Z,22.54
2022-09-02T00:18:15.765Z,22.54
2022-09-02T00:19:15.778Z,22.53
2022-09-02T00:20:15.742Z,22.53
2022-09-02T00:21:15.745Z,22.53
2022-09-02T00:22:15.776Z,22.51
2022-09-02T00:23:15.722Z,22.51
2022-09-02T00:24:15.714Z,22.51
2022-09-02T00:25:15.703Z,22.50
2022-09-02T00:26:15.706Z,22.51
2022-09-02T00:27:15.680Z,22.50
2022-09-02T00:28:15.834Z,22.50
2022-09-02T00:29:15.688Z,22.48
2022-09-02T00:30:15.660Z,22.48
2022-09-02T00:31:15.690Z,22.48
2022-09-02T00:32:15.735Z,22.48
2022-09-02T00:33:15.653Z,22.47
2022-09-02T00:34:15.598Z,22.47
2022-09-02T00:35:15.768Z,22.47
2022-09-02T00:36:15.570Z,22.47
2022-09-02T00:37:15.578Z,22.45
2022-09-02T00:38:15.557Z,22.48
2022-09-02T00:39:15.565Z,22.45
2022-09-02T00:40:15.605Z,22.45
2022-09-02T00:41:15.538Z,22.45
2022-09-02T00:42:15.517Z,22.44
2022-09-02T00:43:15.709Z,22.45
2022-09-02T00:44:15.473Z,22.44
2022-09-02T00:45:15.497Z,22.44
2022-09-02T00:46:15.619Z,22.43
2022-09-02T00:47:15.470Z,22.43
2022-09-02T00:48:15.453Z,22.44
2022-09-02T00:49:15.467Z,22.43
2022-09-02T00:50:15.429Z,22.43
2022-09-02T00:51:15.426Z,22.43
2022-09-02T00:52:15.447Z,22.43
2022-09-02T00:53:15.396Z,22.41
2022-09-02T00:54:15.373Z,22.41
2022-09-02T00:55:15.387Z,22.41
2022-09-02T00:56:15.366Z,22.41
2022-09-02T00:57:15.393Z,22.41
2022-09-02T00:58:15.330Z,22.39
2022-09-02T00:59:15.349Z,22.39
2022-09-02T01:00:15.335Z,22.39
2022-09-02T01:01:15.465Z,22.39
2022-09-02T01:02:15.437Z,22.39
2022-09-02T01:03:15.286Z,22.38
2022-09-02T01:04:15.323Z,22.38
2022-09-02T01:05:15.262Z,22.38
2022-09-02T01:06:15.288Z,22.39
2022-09-02T01:07:15.239Z,22.38
2022-09-02T01:08:15.237Z,22.36
2022-09-02T01:09:15.212Z,22.36
2022-09-02T01:10:15.196Z,22.35
2022-09-02T01:11:15.207Z,22.35
2022-09-02T01:12:15.182Z,22.36
2022-09-02T01:13:15.207Z,22.36
2022-09-02T01:14:15.169Z,22.36
2022-09-02T01:15:15.145Z,22.36
2022-09-02T01:16:15.174Z,22.35
2022-09-02T01:17:15.139Z,22.33
2022-09-02T01:18:15.114Z,22.35
2022-09-02T01:19:15.117Z,22.35
2022-09-02T01:20:15.120Z,22.35
2022-09-02T01:21:15.105Z,22.33
2022-09-02T01:22:15.062Z,22.33
2022-09-02T01:23:15.106Z,22.35
2022-09-02T01:24:15.065Z,22.33
2022-09-02T01:25:15.032Z,22.33
2022-09-02T01:26:15.031Z,22.32
2022-09-02T01:27:15.037Z,22.30
2022-09-02T01:28:15.006Z,22.32
2022-09-02T01:29:14.984Z,22.32
2022-09-02T01:30:14.985Z,22.32
2022-09-02T01:31:15.032Z,22.32
2022-09-02T01:32:14.960Z,22.32
2022-09-02T01:33:14.959Z,22.30
2022-09-02T01:34:14.950Z,22.32
2022-09-02T01:35:14.957Z,22.30
2022-09-02T01:36:14.965Z,22.29
2022-09-02T01:37:14.924Z,22.30
2022-09-02T01:38:14.882Z,22.30
2022-09-02T01:39:14.897Z,22.29
2022-09-02T01:40:14.951Z,22.29
2022-09-02T01:41:14.852Z,22.29
2022-09-02T01:42:14.831Z,22.30
2022-09-02T01:43:14.846Z,22.29
2022-09-02T01:44:14.835Z,22.28
2022-09-02T01:45:14.828Z,22.29
2022-09-02T01:46:14.859Z,22.29
2022-09-02T01:47:14.803Z,22.28
2022-09-02T01:48:14.815Z,22.29
2022-09-02T01:49:15.798Z,22.28
2022-09-02T01:50:14.762Z,22.28
2022-09-02T01:51:14.752Z,22.28
2022-09-02T01:52:14.725Z,22.26
2022-09-02T01:53:14.733Z,22.28
2022-09-02T01:54:14.734Z,22.28
2022-09-02T01:55:14.717Z,22.26
2022-09-02T01:56:14.713Z,22.28
2022-09-02T01:57:14.707Z,22.26
2022-09-02T01:58:14.677Z,22.25
2022-09-02T01:59:14.716Z,22.25
2022-09-02T02:00:14.655Z,22.25
2022-09-02T02:01:14.685Z,22.25
2022-09-02T02:02:14.742Z,22.25
2022-09-02T02:03:14.626Z,22.26
2022-09-02T02:04:14.614Z,22.26
2022-09-02T02:05:14.643Z,22.25
2022-09-02T02:06:14.591Z,22.25
2022-09-02T02:07:14.585Z,22.23
2022-09-02T02:08:14.557Z,22.25
2022-09-02T02:09:14.565Z,22.25
2022-09-02T02:10:14.561Z,22.23
2022-09-02T02:11:14.548Z,22.23
2022-09-02T02:12:14.547Z,22.23
2022-09-02T02:13:14.525Z,22.23
2022-09-02T02:14:14.505Z,22.23
2022-09-02T02:15:14.492Z,22.23
2022-09-02T02:16:14.560Z,22.25
2022-09-02T02:17:14.470Z,22.23
2022-09-02T02:18:14.455Z,22.23
2022-09-02T02:19:14.440Z,22.25
2022-09-02T02:20:14.425Z,22.22
2022-09-02T02:21:14.436Z,22.23
2022-09-02T02:22:14.462Z,22.22
2022-09-02T02:23:14.499Z,22.22
2022-09-02T02:24:14.422Z,22.22
2022-09-02T02:25:14.395Z,22.22
2022-09-02T02:26:21.887Z,22.20
2022-09-02T02:27:14.359Z,22.22
2022-09-02T02:28:14.354Z,22.22
2022-09-02T02:29:14.348Z,22.22
2022-09-02T02:30:14.339Z,22.22
2022-09-02T02:31:14.347Z,22.22
2022-09-02T02:32:14.294Z,22.22
2022-09-02T02:33:14.353Z,22.22
2022-09-02T02:34:14.298Z,22.22
2022-09-02T02:35:14.281Z,22.20
2022-09-02T02:36:14.260Z,22.20
2022-09-02T02:37:14.277Z,22.22
2022-09-02T02:38:14.420Z,22.20
2022-09-02T02:39:14.238Z,22.20
2022-09-02T02:40:14.256Z,22.20
2022-09-02T02:41:14.227Z,22.18
2022-09-02T02:42:14.197Z,22.18
2022-09-02T02:43:14.238Z,22.18
2022-09-02T02:44:14.190Z,22.18
2022-09-02T02:45:14.950Z,22.20
2022-09-02T02:46:14.220Z,22.20
2022-09-02T02:47:14.142Z,22.18
2022-09-02T02:48:14.130Z,22.18
2022-09-02T02:49:14.113Z,22.18
2022-09-02T02:50:14.116Z,22.18
2022-09-02T02:51:14.099Z,22.17
2022-09-02T02:52:14.101Z,22.18
2022-09-02T02:53:14.183Z,22.18
2022-09-02T02:54:14.073Z,22.17
2022-09-02T02:55:14.082Z,22.18
2022-09-02T02:56:14.044Z,22.17
2022-09-02T02:57:14.047Z,22.17
2022-09-02T02:58:15.894Z,22.17
2022-09-02T02:59:14.016Z,22.17
2022-09-02T03:00:13.995Z,22.17
2022-09-02T03:01:14.000Z,22.17
2022-09-02T03:02:14.124Z,22.15
2022-09-02T03:03:14.052Z,22.15
2022-09-02T03:04:13.956Z,22.15
2022-09-02T03:05:13.966Z,22.14
2022-09-02T03:06:13.957Z,22.15
2022-09-02T03:07:13.914Z,22.15
2022-09-02T03:08:13.896Z,22.15
2022-09-02T03:09:13.928Z,22.14
2022-09-02T03:10:13.887Z,22.14
2022-09-02T03:11:13.875Z,22.14
2022-09-02T03:12:13.864Z,22.14
2022-09-02T03:13:13.922Z,22.14
2022-09-02T03:14:13.857Z,22.14
2022-09-02T03:15:13.865Z,22.14
2022-09-02T03:16:13.864Z,22.15
2022-09-02T03:17:13.827Z,22.14
2022-09-02T03:18:13.821Z,22.14
2022-09-02T03:19:13.797Z,22.13
2022-09-02T03:20:13.791Z,22.13
2022-09-02T03:21:13.753Z,22.13
2022-09-02T03:22:13.784Z,22.14
2022-09-02T03:23:13.856Z,22.13
2022-09-02T03:24:13.835Z,22.13
2022-09-02T03:25:13.715Z,22.11
2022-09-02T03:26:13.727Z,22.11
2022-09-02T03:27:13.706Z,22.11
2022-09-02T03:28:13.699Z,22.13
2022-09-02T03:29:13.676Z,22.11
2022-09-02T03:30:13.819Z,22.11
2022-09-02T03:31:13.712Z,22.11
2022-09-02T03:32:14.813Z,22.11
2022-09-02T03:33:13.624Z,22.10
2022-09-02T03:34:13.649Z,22.10
2022-09-02T03:35:13.602Z,22.10
2022-09-02T03:36:13.593Z,22.10
2022-09-02T03:37:13.609Z,22.11
2022-09-02T03:38:13.599Z,22.10
2022-09-02T03:39:13.577Z,22.10
2022-09-02T03:40:13.639Z,22.08
2022-09-02T03:41:13.534Z,22.08
2022-09-02T03:42:19.312Z,22.08
2022-09-02T03:43:14.568Z,22.08
2022-09-02T03:44:13.519Z,22.08
2022-09-02T03:45:13.513Z,22.10
2022-09-02T03:46:13.663Z,22.10
2022-09-02T03:47:13.515Z,22.08
2022-09-02T03:48:13.465Z,22.08
2022-09-02T03:49:13.454Z,22.06
2022-09-02T03:50:13.466Z,22.07
2022-09-02T03:51:13.431Z,22.07
2022-09-02T03:52:13.421Z,22.08
2022-09-02T03:53:19.791Z,22.07
2022-09-02T03:54:14.407Z,22.07
2022-09-02T03:55:13.409Z,22.07
2022-09-02T03:56:13.394Z,22.06
2022-09-02T03:57:13.427Z,22.07
2022-09-02T03:58:13.363Z,22.04
2022-09-02T03:59:13.372Z,22.06
2022-09-02T04:00:13.355Z,22.07
2022-09-02T04:01:13.387Z,22.07
2022-09-02T04:02:13.443Z,22.06
2022-09-02T04:03:13.344Z,22.06
2022-09-02T04:04:13.288Z,22.04
2022-09-02T04:05:15.738Z,22.04
2022-09-02T04:06:13.287Z,22.04
2022-09-02T04:07:13.277Z,22.04
2022-09-02T04:08:13.263Z,22.04
2022-09-02T04:09:13.253Z,22.06
2022-09-02T04:10:13.254Z,22.04
2022-09-02T04:11:13.246Z,22.02
2022-09-02T04:12:13.242Z,22.04
2022-09-02T04:13:13.247Z,22.02
2022-09-02T04:14:13.215Z,22.02
2022-09-02T04:15:13.163Z,22.02
2022-09-02T04:16:13.206Z,22.02
2022-09-02T04:17:13.166Z,22.04
2022-09-02T04:18:13.147Z,22.02
2022-09-02T04:19:13.135Z,22.02
2022-09-02T04:20:13.138Z,22.02
2022-09-02T04:21:13.129Z,22.02
2022-09-02T04:22:13.122Z,22.02
2022-09-02T04:23:13.092Z,22.02
2022-09-02T04:24:13.116Z,22.02
2022-09-02T04:25:13.293Z,22.00
2022-09-02T04:26:13.051Z,22.00
2022-09-02T04:27:13.055Z,22.00
2022-09-02T04:28:13.145Z,22.00
2022-09-02T04:29:13.027Z,22.00
2022-09-02T04:30:13.043Z,22.00
2022-09-02T04:31:13.115Z,22.00
2022-09-02T04:32:13.003Z,21.99
2022-09-02T04:33:13.056Z,22.00
2022-09-02T04:34:12.981Z,21.99
2022-09-02T04:35:12.970Z,21.99
2022-09-02T04:36:14.724Z,21.98
2022-09-02T04:37:12.924Z,21.99
2022-09-02T04:38:12.943Z,21.99
2022-09-02T04:39:12.912Z,21.98
2022-09-02T04:40:12.939Z,21.99
2022-09-02T04:41:12.899Z,21.99
2022-09-02T04:42:12.894Z,21.99
2022-09-02T04:43:12.854Z,21.98
2022-09-02T04:44:12.851Z,21.98
2022-09-02T04:45:12.832Z,21.99
2022-09-02T04:46:12.945Z,21.96
2022-09-02T04:47:12.843Z,21.98
2022-09-02T04:48:12.827Z,21.98
2022-09-02T04:49:12.802Z,21.96
2022-09-02T04:50:12.887Z,21.98
2022-09-02T04:51:12.796Z,21.96
2022-09-02T04:52:12.787Z,21.98
2022-09-02T04:53:12.765Z,21.96
2022-09-02T04:54:12.749Z,21.98
2022-09-02T04:55:12.724Z,21.96
2022-09-02T04:56:12.718Z,21.96
2022-09-02T04:57:12.734Z,21.96
2022-09-02T04:58:12.719Z,21.96
2022-09-02T04:59:12.710Z,21.96
2022-09-02T05:00:12.674Z,21.96
2022-09-02T05:01:12.715Z,21.95
2022-09-02T05:02:12.807Z,21.95
2022-09-02T05:03:12.655Z,21.96
2022-09-02T05:04:12.633Z,21.96
2022-09-02T05:05:12.615Z,21.96
2022-09-02T05:06:12.667Z,21.95
2022-09-02T05:07:12.615Z,21.95
2022-09-02T05:08:12.592Z,21.93
2022-09-02T05:09:12.613Z,21.95
2022-09-02T05:10:12.582Z,21.93
2022-09-02T05:11:12.543Z,21.93
2022-09-02T05:12:12.552Z,21.93
2022-09-02T05:13:12.553Z,21.93
2022-09-02T05:14:12.532Z,21.95
2022-09-02T05:15:12.505Z,21.93
2022-09-02T05:16:12.528Z,21.92
2022-09-02T05:17:12.524Z,21.93
2022-09-02T05:18:12.512Z,21.93
2022-09-02T05:19:12.479Z,21.93
2022-09-02T05:20:12.471Z,21.93
2022-09-02T05:21:12.435Z,21.93
2022-09-02T05:22:12.481Z,21.92
2022-09-02T05:23:12.426Z,21.92
2022-09-02T05:24:12.436Z,21.92
2022-09-02T05:25:12.405Z,21.93
2022-09-02T05:26:12.406Z,21.92
2022-09-02T05:27:12.406Z,21.92
2022-09-02T05:28:12.389Z,21.92
2022-09-02T05:29:12.410Z,21.92
2022-09-02T05:30:12.375Z,21.91
2022-09-02T05:31:12.430Z,21.91
2022-09-02T05:32:12.383Z,21.92
2022-09-02T05:33:23.387Z,21.91
2022-09-02T05:34:13.299Z,21.92
2022-09-02T05:35:12.321Z,21.91
2022-09-02T05:36:12.365Z,21.89
2022-09-02T05:37:12.279Z,21.91
2022-09-02T05:38:12.305Z,21.89
2022-09-02T05:39:12.259Z,21.91
2022-09-02T05:40:12.341Z,21.91
2022-09-02T05:41:12.248Z,21.89
2022-09-02T05:42:12.281Z,21.89
2022-09-02T05:43:12.212Z,21.91
2022-09-02T05:44:12.187Z,21.91
2022-09-02T05:45:12.215Z,21.91
2022-09-02T05:46:12.186Z,21.91
2022-09-02T05:47:12.253Z,21.89
2022-09-02T05:48:12.187Z,21.89
2022-09-02T05:49:12.133Z,21.89
2022-09-02T05:50:12.139Z,21.89
2022-09-02T05:51:12.139Z,21.89
2022-09-02T05:52:12.110Z,21.89
2022-09-02T05:53:14.820Z,21.88
2022-09-02T05:54:12.082Z,21.88
2022-09-02T05:55:12.107Z,21.88
2022-09-02T05:56:12.096Z,21.89
2022-09-02T05:57:12.046Z,21.89
2022-09-02T05:58:12.072Z,21.89
2022-09-02T05:59:12.022Z,21.88
2022-09-02T06:00:17.674Z,21.88
2022-09-02T06:01:13.049Z,21.88
2022-09-02T06:02:12.200Z,21.88
2022-09-02T06:03:12.078Z,21.85
2022-09-02T06:04:11.972Z,21.88
2022-09-02T06:05:11.996Z,21.85
2022-09-02T06:06:11.952Z,21.85
2022-09-02T06:07:13.858Z,21.88
2022-09-02T06:08:11.977Z,21.85
2022-09-02T06:09:11.941Z,21.85
2022-09-02T06:10:11.935Z,21.85
2022-09-02T06:11:11.903Z,21.88
2022-09-02T06:12:11.888Z,21.85
2022-09-02T06:13:11.874Z,21.85
2022-09-02T06:14:11.884Z,21.85
2022-09-02T06:15:11.864Z,21.85
2022-09-02T06:16:11.888Z,21.85
2022-09-02T06:17:11.846Z,21.85
2022-09-02T06:18:11.871Z,21.85
2022-09-02T06:19:14.339Z,21.83
2022-09-02T06:20:12.797Z,21.85
2022-09-02T06:21:11.786Z,21.85
2022-09-02T06:22:11.783Z,21.85
2022-09-02T06:23:11.788Z,21.85
2022-09-02T06:24:11.782Z,21.85
2022-09-02T06:25:11.758Z,21.88
2022-09-02T06:26:11.759Z,21.85
2022-09-02T06:27:11.714Z,21.85
2022-09-02T06:28:11.697Z,21.85
2022-09-02T06:29:11.730Z,21.85
2022-09-02T06:30:11.690Z,21.85
2022-09-02T06:31:11.747Z,21.85
2022-09-02T06:32:11.688Z,21.88
2022-09-02T06:33:11.656Z,21.83
2022-09-02T06:34:11.682Z,21.83
2022-09-02T06:35:11.676Z,21.83
2022-09-02T06:36:11.623Z,21.85
2022-09-02T06:37:11.626Z,21.83
2022-09-02T06:38:11.601Z,21.83
2022-09-02T06:39:11.615Z,21.85
2022-09-02T06:40:11.621Z,21.85
2022-09-02T06:41:11.593Z,21.85
2022-09-02T06:42:11.573Z,21.85
2022-09-02T06:43:11.546Z,21.83
2022-09-02T06:44:11.605Z,21.83
2022-09-02T06:45:11.544Z,21.83
2022-09-02T06:46:11.604Z,21.82
2022-09-02T06:47:11.555Z,21.83
2022-09-02T06:48:11.512Z,21.83
2022-09-02T06:49:11.492Z,21.83
2022-09-02T06:50:11.479Z,21.83
2022-09-02T06:51:11.478Z,21.82
2022-09-02T06:52:11.478Z,21.83
2022-09-02T06:53:11.489Z,21.83
2022-09-02T06:54:11.445Z,21.80
2022-09-02T06:55:11.425Z,21.82
2022-09-02T06:56:11.426Z,21.82
2022-09-02T06:57:11.437Z,21.82
2022-09-02T06:58:11.409Z,21.83
2022-09-02T06:59:11.378Z,21.82
2022-09-02T07:00:11.371Z,21.82
2022-09-02T07:01:11.441Z,21.82
2022-09-02T07:02:11.689Z,21.80
2022-09-02T07:03:11.320Z,21.83
2022-09-02T07:04:11.313Z,21.83
2022-09-02T07:05:11.290Z,21.82
2022-09-02T07:06:11.292Z,21.82
2022-09-02T07:07:11.286Z,21.82
2022-09-02T07:08:11.360Z,21.82
2022-09-02T07:09:11.297Z,21.82
2022-09-02T07:10:11.385Z,21.82
2022-09-02T07:11:11.222Z,21.80
2022-09-02T07:12:11.260Z,21.82
2022-09-02T07:13:11.237Z,21.80
2022-09-02T07:14:11.211Z,21.82
2022-09-02T07:15:11.222Z,21.82
2022-09-02T07:16:11.270Z,21.82
2022-09-02T07:17:11.218Z,21.80
2022-09-02T07:18:11.198Z,21.82
2022-09-02T07:19:15.122Z,21.82
2022-09-02T07:20:12.164Z,21.82
2022-09-02T07:21:11.125Z,21.80
2022-09-02T07:22:11.126Z,21.80
2022-09-02T07:23:11.139Z,21.82
2022-09-02T07:24:11.094Z,21.80
2022-09-02T07:25:11.093Z,21.80
2022-09-02T07:26:11.080Z,21.82
2022-09-02T07:27:11.073Z,21.80
2022-09-02T07:28:11.051Z,21.80
2022-09-02T07:29:11.052Z,21.82
2022-09-02T07:30:11.027Z,21.80
2022-09-02T07:31:11.126Z,21.82
2022-09-02T07:32:11.000Z,21.82
2022-09-02T07:33:11.049Z,21.80
2022-09-02T07:34:10.983Z,21.82
2022-09-02T07:35:10.977Z,21.83
2022-09-02T07:36:12.496Z,21.83
2022-09-02T07:37:11.340Z,21.83
2022-09-02T07:38:10.941Z,21.82
2022-09-02T07:39:10.944Z,21.83
2022-09-02T07:40:11.016Z,21.82
2022-09-02T07:41:10.900Z,21.83
2022-09-02T07:42:10.887Z,21.83
2022-09-02T07:43:10.881Z,21.82
2022-09-02T07:44:10.904Z,21.83
2022-09-02T07:45:10.870Z,21.83
2022-09-02T07:46:10.977Z,21.83
2022-09-02T07:47:10.880Z,21.85
2022-09-02T07:48:10.855Z,21.85
2022-09-02T07:49:10.855Z,21.85
2022-09-02T07:50:20.169Z,21.85
2022-09-02T07:51:11.803Z,21.83
2022-09-02T07:52:10.807Z,21.88
2022-09-02T07:53:10.796Z,21.88
2022-09-02T07:54:10.863Z,21.85
2022-09-02T07:55:14.630Z,21.85
2022-09-02T07:56:10.756Z,21.85
2022-09-02T07:57:10.721Z,21.88
2022-09-02T07:58:10.747Z,21.88
2022-09-02T07:59:11.736Z,21.88
2022-09-02T08:00:10.690Z,21.89
2022-09-02T08:01:10.786Z,21.89
2022-09-02T08:02:10.726Z,21.88
2022-09-02T08:03:10.661Z,21.88
2022-09-02T08:04:10.650Z,21.89
2022-09-02T08:05:10.653Z,21.91
2022-09-02T08:06:10.657Z,21.91
2022-09-02T08:07:10.649Z,21.91
2022-09-02T08:08:10.621Z,21.91
2022-09-02T08:09:10.628Z,21.91
2022-09-02T08:10:10.607Z,21.92
2022-09-02T08:11:10.604Z,21.91
2022-09-02T08:12:10.601Z,21.91
2022-09-02T08:13:10.568Z,21.91
2022-09-02T08:14:10.545Z,21.93
2022-09-02T08:15:10.569Z,21.92
2022-09-02T08:16:10.629Z,21.93
2022-09-02T08:17:10.522Z,21.95
2022-09-02T08:18:14.479Z,21.95
2022-09-02T08:19:11.502Z,21.95
2022-09-02T08:20:12.540Z,21.95
2022-09-02T08:21:10.485Z,21.95
2022-09-02T08:22:10.469Z,21.96
2022-09-02T08:23:11.684Z,21.98
2022-09-02T08:24:11.437Z,21.96
2022-09-02T08:25:10.460Z,21.98
2022-09-02T08:26:10.440Z,21.96
2022-09-02T08:27:10.464Z,21.98
2022-09-02T08:28:10.414Z,21.98
2022-09-02T08:29:10.466Z,21.99
2022-09-02T08:30:10.855Z,21.99
2022-09-02T08:31:10.348Z,22.00
2022-09-02T08:32:10.380Z,21.99
2022-09-02T08:33:10.342Z,22.00
2022-09-02T08:34:10.340Z,22.02
2022-09-02T08:35:10.318Z,22.00
2022-09-02T08:36:10.320Z,22.04
2022-09-02T08:37:10.312Z,22.04
2022-09-02T08:38:10.334Z,22.04
2022-09-02T08:39:10.313Z,22.06
2022-09-02T08:40:10.346Z,22.06
2022-09-02T08:41:10.256Z,22.06
2022-09-02T08:42:10.248Z,22.06
2022-09-02T08:43:10.236Z,22.06
2022-09-02T08:44:10.217Z,22.07
2022-09-02T08:45:10.221Z,22.07
2022-09-02T08:46:10.333Z,22.08
2022-09-02T08:47:10.184Z,22.10
2022-09-02T08:48:10.182Z,22.10
2022-09-02T08:49:10.219Z,22.10
2022-09-02T08:50:10.171Z,22.11
2022-09-02T08:51:10.150Z,22.10
2022-09-02T08:52:10.912Z,22.11
2022-09-02T08:53:10.140Z,22.11
2022-09-02T08:54:10.118Z,22.10
2022-09-02T08:55:10.161Z,22.11
2022-09-02T08:56:10.109Z,22.13
2022-09-02T08:57:10.061Z,22.13
2022-09-02T08:58:10.104Z,22.13
2022-09-02T08:59:10.058Z,22.14
2022-09-02T09:00:10.031Z,22.13
2022-09-02T09:01:10.049Z,22.14
2022-09-02T09:02:10.067Z,22.14
2022-09-02T09:03:10.016Z,22.17
2022-09-02T09:04:10.071Z,22.17
2022-09-02T09:05:09.970Z,22.17
2022-09-02T09:06:10.013Z,22.17
2022-09-02T09:07:09.965Z,22.18
2022-09-02T09:08:12.470Z,22.20
2022-09-02T09:09:09.960Z,22.20
2022-09-02T09:10:09.963Z,22.20
2022-09-02T09:11:09.928Z,22.22
2022-09-02T09:12:09.963Z,22.23
2022-09-02T09:13:09.904Z,22.23
2022-09-02T09:14:09.869Z,22.23
2022-09-02T09:15:09.873Z,22.25
2022-09-02T09:16:09.954Z,22.26
2022-09-02T09:17:09.873Z,22.25
2022-09-02T09:18:09.851Z,22.26
2022-09-02T09:19:09.875Z,22.26
2022-09-02T09:20:09.811Z,22.28
2022-09-02T09:21:10.443Z,22.28
2022-09-02T09:22:09.798Z,22.29
2022-09-02T09:23:09.793Z,22.29
2022-09-02T09:24:09.770Z,22.29
2022-09-02T09:25:09.759Z,22.29
2022-09-02T09:26:09.738Z,22.30
2022-09-02T09:27:09.741Z,22.32
2022-09-02T09:28:09.740Z,22.33
2022-09-02T09:29:09.712Z,22.33
2022-09-02T09:30:14.906Z,22.33
2022-09-02T09:31:10.738Z,22.35
2022-09-02T09:32:09.731Z,22.35
2022-09-02T09:33:09.684Z,22.36
2022-09-02T09:34:09.703Z,22.38
2022-09-02T09:35:09.665Z,22.38
2022-09-02T09:36:09.656Z,22.38
2022-09-02T09:37:09.648Z,22.39
2022-09-02T09:38:09.632Z,22.41
2022-09-02T09:39:09.613Z,22.43
2022-09-02T09:40:09.631Z,22.43
2022-09-02T09:41:09.642Z,22.43
2022-09-02T09:42:09.569Z,22.44
2022-09-02T09:43:15.139Z,22.45
2022-09-02T09:44:10.538Z,22.45
2022-09-02T09:45:09.521Z,22.47
2022-09-02T09:46:09.602Z,22.47
2022-09-02T09:47:09.560Z,22.48
2022-09-02T09:48:09.542Z,22.48
2022-09-02T09:49:10.703Z,22.50
2022-09-02T09:50:09.483Z,22.51
2022-09-02T09:51:09.495Z,22.53
2022-09-02T09:52:09.494Z,22.53
2022-09-02T09:53:09.463Z,22.53
2022-09-02T09:54:09.451Z,22.54
2022-09-02T09:55:11.598Z,22.54
2022-09-02T09:56:09.419Z,22.57
2022-09-02T09:57:09.412Z,22.57
2022-09-02T09:58:09.426Z,22.59
2022-09-02T09:59:09.387Z,22.59
2022-09-02T10:00:09.359Z,22.59
2022-09-02T10:01:09.390Z,22.60
2022-09-02T10:02:09.432Z,22.62
2022-09-02T10:03:09.372Z,22.60
2022-09-02T10:04:26.247Z,22.62
2022-09-02T10:05:10.308Z,22.63
2022-09-02T10:06:09.321Z,22.63
2022-09-02T10:07:09.309Z,22.65
2022-09-02T10:08:15.090Z,22.65
2022-09-02T10:09:10.291Z,22.66
2022-09-02T10:10:09.271Z,22.66
2022-09-02T10:11:09.250Z,22.66
2022-09-02T10:12:09.266Z,22.66
2022-09-02T10:13:09.530Z,22.66
2022-09-02T10:14:09.231Z,22.65
2022-09-02T10:15:09.223Z,22.68
2022-09-02T10:16:09.386Z,22.66
2022-09-02T10:17:09.188Z,22.66
2022-09-02T10:18:09.219Z,22.68
2022-09-02T10:19:09.188Z,22.68
2022-09-02T10:20:09.157Z,22.66
2022-09-02T10:21:15.481Z,22.66
2022-09-02T10:22:10.169Z,22.66
2022-09-02T10:23:09.151Z,22.66
2022-09-02T10:24:09.136Z,22.66
2022-09-02T10:25:09.097Z,22.66
2022-09-02T10:26:09.821Z,22.66
2022-09-02T10:27:17.116Z,22.65
2022-09-02T10:28:09.052Z,22.65
2022-09-02T10:29:09.044Z,22.66
2022-09-02T10:30:09.063Z,22.66
2022-09-02T10:31:09.124Z,22.66
2022-09-02T10:32:09.253Z,22.66
2022-09-02T10:33:09.033Z,22.66
2022-09-02T10:34:09.009Z,22.63
2022-09-02T10:35:09.020Z,22.63
2022-09-02T10:36:09.837Z,22.63
2022-09-02T10:37:08.972Z,22.62
2022-09-02T10:38:08.988Z,22.60
2022-09-02T10:39:09.006Z,22.59
2022-09-02T10:40:08.996Z,22.59
2022-09-02T10:41:08.934Z,22.57
2022-09-02T10:42:08.926Z,22.57
2022-09-02T10:43:08.904Z,22.55
2022-09-02T10:44:08.912Z,22.55
2022-09-02T10:45:08.900Z,22.54
2022-09-02T10:46:08.916Z,22.54
2022-09-02T10:47:08.869Z,22.53
2022-09-02T10:48:08.865Z,22.50
2022-09-02T10:49:08.849Z,22.50
2022-09-02T10:50:08.831Z,22.50
2022-09-02T10:51:08.885Z,22.48
2022-09-02T10:52:08.837Z,22.48
2022-09-02T10:53:09.600Z,22.48
2022-09-02T10:54:08.817Z,22.45
2022-09-02T10:55:08.979Z,22.45
2022-09-02T10:56:08.752Z,22.45
2022-09-02T10:57:08.761Z,22.45
2022-09-02T10:58:08.757Z,22.45
2022-09-02T10:59:08.738Z,22.45
2022-09-02T11:00:08.759Z,22.45
2022-09-02T11:01:08.812Z,22.45
2022-09-02T11:02:08.702Z,22.45
2022-09-02T11:03:09.072Z,22.45
2022-09-02T11:04:08.725Z,22.45
2022-09-02T11:05:08.663Z,22.47
2022-09-02T11:06:08.683Z,22.47
2022-09-02T11:07:08.653Z,22.45
2022-09-02T11:08:08.636Z,22.47
2022-09-02T11:09:08.643Z,22.47
2022-09-02T11:10:08.630Z,22.47
2022-09-02T11:11:08.615Z,22.48
2022-09-02T11:12:08.594Z,22.47
2022-09-02T11:13:08.617Z,22.48
2022-09-02T11:14:08.585Z,22.47
2022-09-02T11:15:08.578Z,22.47
2022-09-02T11:16:08.584Z,22.48
2022-09-02T11:17:13.376Z,22.47
2022-09-02T11:18:09.566Z,22.50
2022-09-02T11:19:08.579Z,22.48
2022-09-02T11:20:08.508Z,22.48
2022-09-02T11:21:08.547Z,22.48
2022-09-02T11:22:08.497Z,22.48
2022-09-02T11:23:08.474Z,22.50
2022-09-02T11:24:08.645Z,22.48
2022-09-02T11:25:08.469Z,22.48
2022-09-02T11:26:08.447Z,22.50
2022-09-02T11:27:15.757Z,22.51
2022-09-02T11:28:09.424Z,22.50
2022-09-02T11:29:09.437Z,22.50
2022-09-02T11:30:08.420Z,22.51
2022-09-02T11:31:08.399Z,22.51
2022-09-02T11:32:08.363Z,22.50
2022-09-02T11:33:08.379Z,22.50
2022-09-02T11:34:08.371Z,22.50
2022-09-02T11:35:08.396Z,22.50
2022-09-02T11:36:08.405Z,22.50
2022-09-02T11:37:08.348Z,22.51
2022-09-02T11:38:08.326Z,22.50
2022-09-02T11:39:08.316Z,22.50
2022-09-02T11:40:30.587Z,22.48
2022-09-02T11:42:09.315Z,22.50
2022-09-02T11:43:08.267Z,22.50
2022-09-02T11:44:08.256Z,22.50
2022-09-02T11:45:08.290Z,22.48
2022-09-02T11:46:08.342Z,22.48
2022-09-02T11:47:08.238Z,22.48
2022-09-02T11:48:08.217Z,22.50
2022-09-02T11:49:08.354Z,22.50
2022-09-02T11:50:08.229Z,22.50
2022-09-02T11:51:08.251Z,22.51
2022-09-02T11:52:08.208Z,22.53
2022-09-02T11:53:08.204Z,22.53
2022-09-02T11:54:08.141Z,22.55
2022-09-02T11:55:08.136Z,22.54
2022-09-02T11:56:08.122Z,22.55
2022-09-02T11:57:08.345Z,22.57
2022-09-02T11:58:08.116Z,22.60
2022-09-02T11:59:08.094Z,22.59
2022-09-02T12:00:08.074Z,22.60
2022-09-02T12:01:08.072Z,22.60
2022-09-02T12:02:09.075Z,22.60
2022-09-02T12:03:38.025Z,22.62
2022-09-02T12:04:55.751Z,22.63
2022-09-02T12:05:09.592Z,22.63
2022-09-02T12:06:08.207Z,22.63
2022-09-02T12:07:09.545Z,22.65
2022-09-02T12:08:07.990Z,22.63
2022-09-02T12:09:08.015Z,22.65
2022-09-02T12:10:07.980Z,22.65
2022-09-02T12:11:08.001Z,22.65
2022-09-02T12:12:07.968Z,22.65
2022-09-02T12:13:08.365Z,22.65
2022-09-02T12:14:09.012Z,22.66
2022-09-02T12:15:07.934Z,22.66
2022-09-02T12:16:08.022Z,22.66
2022-09-02T12:17:07.933Z,22.68
2022-09-02T12:18:07.981Z,22.69
2022-09-02T12:19:07.938Z,22.68
2022-09-02T12:20:07.906Z,22.69
2022-09-02T12:21:07.875Z,22.69
2022-09-02T12:22:07.830Z,22.69
2022-09-02T12:23:07.835Z,22.70
2022-09-02T12:24:07.837Z,22.70
2022-09-02T12:25:07.793Z,22.72
2022-09-02T12:26:07.869Z,22.72
2022-09-02T12:27:07.795Z,22.73
2022-09-02T12:28:07.785Z,22.75
2022-09-02T12:29:07.780Z,22.73
2022-09-02T12:30:07.748Z,22.75
2022-09-02T12:31:07.954Z,22.75
2022-09-02T12:32:07.737Z,22.75
2022-09-02T12:33:07.716Z,22.76
2022-09-02T12:34:07.703Z,22.76
2022-09-02T12:35:07.684Z,22.78
2022-09-02T12:36:07.673Z,22.80
2022-09-02T12:37:07.673Z,22.80
2022-09-02T12:38:07.667Z,22.81
2022-09-02T12:39:09.913Z,22.81
2022-09-02T12:40:07.706Z,22.81
2022-09-02T12:41:08.624Z,22.83
2022-09-02T12:42:07.645Z,22.83
2022-09-02T12:43:07.629Z,22.83
2022-09-02T12:44:07.638Z,22.83
2022-09-02T12:45:07.598Z,22.83
2022-09-02T12:46:07.608Z,22.84
2022-09-02T12:47:07.574Z,22.84
2022-09-02T12:48:07.551Z,22.84
2022-09-02T12:49:07.551Z,22.84
2022-09-02T12:50:07.666Z,22.84
2022-09-02T12:51:07.530Z,22.83
2022-09-02T12:52:07.542Z,22.84
2022-09-02T12:53:07.506Z,22.84